RAAF Base Amberley
YAMB : now visible

Airfield :











YOU CAN JOIN US ON...

 
LOGIN :

Register | Disclaimer

   EN    FR    IT 

 









Legend :    VFR   Marginal VFR   IFR   Intensive IFR   Very Intensive IFR
Visi :
Ceiling :
>= 8 km
>= 3000ft
5 to 8 km
1000 to 3000 ft
1500m to 5 km
500 to 1000 ft
800 to 1500m
200 to 500 ft
< 800m
< 200 ft
Symbols :   Thunderstorms  Fog  Heavy snow  Heavy precipitations  Wind > 20 kt






- Airport Elevation : 91 ft


YAMB - RAAF Base Amberley

CURRENT METAR :
  • 231700Z AUTO 08004KT 9999 -SHRA BKN037 BKN041 OVC046 14/12 Q1022

EXPIRED METARs :
  • 231630Z AUTO 01005KT 350V090 9999 // BKN051 OVC061 13/12 Q1023
  • 231600Z AUTO 35003KT 9999 // BKN044 OVC053 13/12 Q1023
  • 231530Z AUTO 00000KT 9999 // OVC048 13/12 Q1023
  • 231500Z AUTO 27002KT 9999 // OVC052 13/12 Q1024
  • 231430Z AUTO 27004KT 9999 // OVC061 13/12 Q1024

TAF TAF YAMB
Valid from the 23 at 12:00 until the 24 at 12:00 UTC


231110Z 2312/2412 VRB03KT 9999 SCT045
FM240200 33006KT 9999 SCT035 BKN050
FM240700 03006KT 9999 -SHRA SCT035 BKN100
PROB30 2317/2322 0800 FG FEW001
YBBB FIR / Oceania



MET'MAP, your aeronautical weather chart ! - Copyright ORBIFLY December 2007 - Disclaimer

ORBIFLY MET'MAP TEAM :

Programming & Development : Alexandra Zaïnal
Concept & original design : Baudouin d'Aumeries
Assistance for programming : Marc-Olivier Méhu
Technical & hardware support : Manuel Goepfert

Contact : metmap@orbifly.com




SOURCES & CREDITS :

   NOAA       Earth
Advisory